sensor_id;sensor_type;location;lat;lon;timestamp;temperature;humidity
78212;SHT31;67490;52.086;5.122;2023-07-13T00:02:34;21.86;59.24
78212;SHT31;67490;52.086;5.122;2023-07-13T00:05:18;21.96;58.97
78212;SHT31;67490;52.086;5.122;2023-07-13T00:08:04;22.03;58.71
78212;SHT31;67490;52.086;5.122;2023-07-13T00:10:51;22.06;58.38
78212;SHT31;67490;52.086;5.122;2023-07-13T00:13:38;22.16;57.97
78212;SHT31;67490;52.086;5.122;2023-07-13T00:16:23;22.14;57.85
78212;SHT31;67490;52.086;5.122;2023-07-13T00:19:07;22.10;58.19
78212;SHT31;67490;52.086;5.122;2023-07-13T00:21:51;22.04;58.36
78212;SHT31;67490;52.086;5.122;2023-07-13T00:24:41;22.13;58.63
78212;SHT31;67490;52.086;5.122;2023-07-13T00:27:25;22.03;58.39
78212;SHT31;67490;52.086;5.122;2023-07-13T00:30:15;21.82;58.95
78212;SHT31;67490;52.086;5.122;2023-07-13T00:32:59;21.75;59.06
78212;SHT31;67490;52.086;5.122;2023-07-13T00:35:45;21.67;58.85
78212;SHT31;67490;52.086;5.122;2023-07-13T00:38:30;21.56;59.26
78212;SHT31;67490;52.086;5.122;2023-07-13T00:41:15;21.60;59.15
78212;SHT31;67490;52.086;5.122;2023-07-13T00:44:00;21.67;58.93
78212;SHT31;67490;52.086;5.122;2023-07-13T00:46:45;21.67;58.89
78212;SHT31;67490;52.086;5.122;2023-07-13T00:49:32;21.66;58.97
78212;SHT31;67490;52.086;5.122;2023-07-13T00:52:17;21.63;59.06
78212;SHT31;67490;52.086;5.122;2023-07-13T00:55:03;21.67;58.85
78212;SHT31;67490;52.086;5.122;2023-07-13T00:57:49;21.73;58.81
78212;SHT31;67490;52.086;5.122;2023-07-13T01:00:35;21.76;58.81
78212;SHT31;67490;52.086;5.122;2023-07-13T01:03:20;21.79;58.72
78212;SHT31;67490;52.086;5.122;2023-07-13T01:06:05;21.75;58.90
78212;SHT31;67490;52.086;5.122;2023-07-13T01:08:50;21.66;59.20
78212;SHT31;67490;52.086;5.122;2023-07-13T01:11:34;21.69;59.10
78212;SHT31;67490;52.086;5.122;2023-07-13T01:14:20;21.72;59.08
78212;SHT31;67490;52.086;5.122;2023-07-13T01:17:04;21.76;58.98
78212;SHT31;67490;52.086;5.122;2023-07-13T01:19:49;21.60;59.31
78212;SHT31;67490;52.086;5.122;2023-07-13T01:22:35;21.57;59.54
78212;SHT31;67490;52.086;5.122;2023-07-13T01:25:20;21.56;59.68
78212;SHT31;67490;52.086;5.122;2023-07-13T01:28:07;21.59;59.79
78212;SHT31;67490;52.086;5.122;2023-07-13T01:30:54;21.63;59.65
78212;SHT31;67490;52.086;5.122;2023-07-13T01:33:40;21.65;59.67
78212;SHT31;67490;52.086;5.122;2023-07-13T01:36:25;21.60;59.71
78212;SHT31;67490;52.086;5.122;2023-07-13T01:39:10;21.50;60.09
78212;SHT31;67490;52.086;5.122;2023-07-13T01:41:55;21.45;60.29
78212;SHT31;67490;52.086;5.122;2023-07-13T01:44:39;21.45;60.48
78212;SHT31;67490;52.086;5.122;2023-07-13T01:47:23;21.39;60.61
78212;SHT31;67490;52.086;5.122;2023-07-13T01:50:08;21.32;60.74
78212;SHT31;67490;52.086;5.122;2023-07-13T01:52:53;21.36;60.79
78212;SHT31;67490;52.086;5.122;2023-07-13T01:55:39;21.32;60.92
78212;SHT31;67490;52.086;5.122;2023-07-13T01:58:24;21.27;61.08
78212;SHT31;67490;52.086;5.122;2023-07-13T02:01:08;21.27;61.02
78212;SHT31;67490;52.086;5.122;2023-07-13T02:03:52;21.18;61.21
78212;SHT31;67490;52.086;5.122;2023-07-13T02:06:37;21.17;61.35
78212;SHT31;67490;52.086;5.122;2023-07-13T02:09:21;20.99;61.86
78212;SHT31;67490;52.086;5.122;2023-07-13T02:12:08;20.95;62.17
78212;SHT31;67490;52.086;5.122;2023-07-13T02:14:52;20.97;62.20
78212;SHT31;67490;52.086;5.122;2023-07-13T02:17:37;20.95;62.22
78212;SHT31;67490;52.086;5.122;2023-07-13T02:20:21;21.01;62.37
78212;SHT31;67490;52.086;5.122;2023-07-13T02:23:06;21.01;62.49
78212;SHT31;67490;52.086;5.122;2023-07-13T02:25:54;21.02;62.48
78212;SHT31;67490;52.086;5.122;2023-07-13T02:28:40;21.05;62.62
78212;SHT31;67490;52.086;5.122;2023-07-13T02:31:25;21.04;62.73
78212;SHT31;67490;52.086;5.122;2023-07-13T02:34:09;20.95;63.09
78212;SHT31;67490;52.086;5.122;2023-07-13T02:36:53;20.92;63.32
78212;SHT31;67490;52.086;5.122;2023-07-13T02:39:38;20.91;63.60
78212;SHT31;67490;52.086;5.122;2023-07-13T02:42:22;20.91;63.63
78212;SHT31;67490;52.086;5.122;2023-07-13T02:45:09;20.94;63.63
78212;SHT31;67490;52.086;5.122;2023-07-13T02:47:54;20.91;63.87
78212;SHT31;67490;52.086;5.122;2023-07-13T02:50:38;20.91;63.68
78212;SHT31;67490;52.086;5.122;2023-07-13T02:53:23;20.87;63.81
78212;SHT31;67490;52.086;5.122;2023-07-13T02:56:07;20.87;63.81
78212;SHT31;67490;52.086;5.122;2023-07-13T02:58:52;20.92;63.60
78212;SHT31;67490;52.086;5.122;2023-07-13T03:01:38;20.99;63.20
78212;SHT31;67490;52.086;5.122;2023-07-13T03:04:22;21.02;63.06
78212;SHT31;67490;52.086;5.122;2023-07-13T03:07:07;20.91;63.06
78212;SHT31;67490;52.086;5.122;2023-07-13T03:09:54;20.83;63.35
78212;SHT31;67490;52.086;5.122;2023-07-13T03:12:39;20.94;63.01
78212;SHT31;67490;52.086;5.122;2023-07-13T03:15:23;21.04;62.73
78212;SHT31;67490;52.086;5.122;2023-07-13T03:18:09;20.98;62.80
78212;SHT31;67490;52.086;5.122;2023-07-13T03:20:54;20.99;62.91
78212;SHT31;67490;52.086;5.122;2023-07-13T03:23:38;20.98;63.00
78212;SHT31;67490;52.086;5.122;2023-07-13T03:26:23;21.01;63.02
78212;SHT31;67490;52.086;5.122;2023-07-13T03:29:07;21.14;62.75
78212;SHT31;67490;52.086;5.122;2023-07-13T03:31:52;21.18;62.71
78212;SHT31;67490;52.086;5.122;2023-07-13T03:34:37;21.08;63.11
78212;SHT31;67490;52.086;5.122;2023-07-13T03:37:22;21.08;63.30
78212;SHT31;67490;52.086;5.122;2023-07-13T03:40:07;21.08;63.39
78212;SHT31;67490;52.086;5.122;2023-07-13T03:42:53;21.05;63.52
78212;SHT31;67490;52.086;5.122;2023-07-13T03:45:38;20.98;63.69
78212;SHT31;67490;52.086;5.122;2023-07-13T03:48:22;21.01;63.68
78212;SHT31;67490;52.086;5.122;2023-07-13T03:51:08;21.01;63.63
78212;SHT31;67490;52.086;5.122;2023-07-13T03:53:53;20.95;63.85
78212;SHT31;67490;52.086;5.122;2023-07-13T03:56:37;20.88;64.27
78212;SHT31;67490;52.086;5.122;2023-07-13T03:59:21;20.83;64.56
78212;SHT31;67490;52.086;5.122;2023-07-13T04:02:06;20.88;64.69
78212;SHT31;67490;52.086;5.122;2023-07-13T04:04:50;20.85;64.80
78212;SHT31;67490;52.086;5.122;2023-07-13T04:07:36;20.77;65.14
78212;SHT31;67490;52.086;5.122;2023-07-13T04:10:21;20.78;65.14
78212;SHT31;67490;52.086;5.122;2023-07-13T04:13:05;20.77;65.29
78212;SHT31;67490;52.086;5.122;2023-07-13T04:15:50;20.78;65.44
78212;SHT31;67490;52.086;5.122;2023-07-13T04:18:34;20.81;65.52
78212;SHT31;67490;52.086;5.122;2023-07-13T04:21:18;20.78;65.70
78212;SHT31;67490;52.086;5.122;2023-07-13T04:24:04;20.85;65.65
78212;SHT31;67490;52.086;5.122;2023-07-13T04:26:48;20.90;65.53
78212;SHT31;67490;52.086;5.122;2023-07-13T04:29:33;20.92;65.43
78212;SHT31;67490;52.086;5.122;2023-07-13T04:32:17;20.88;65.68
78212;SHT31;67490;52.086;5.122;2023-07-13T04:35:01;20.87;65.70
78212;SHT31;67490;52.086;5.122;2023-07-13T04:37:46;20.87;66.05
78212;SHT31;67490;52.086;5.122;2023-07-13T04:40:34;20.91;65.74
78212;SHT31;67490;52.086;5.122;2023-07-13T04:43:18;20.95;65.75
78212;SHT31;67490;52.086;5.122;2023-07-13T04:46:04;20.92;65.80
78212;SHT31;67490;52.086;5.122;2023-07-13T04:48:50;20.90;66.05
78212;SHT31;67490;52.086;5.122;2023-07-13T04:51:37;20.94;66.01
78212;SHT31;67490;52.086;5.122;2023-07-13T04:54:21;20.92;66.00
78212;SHT31;67490;52.086;5.122;2023-07-13T04:57:07;20.97;65.95
78212;SHT31;67490;52.086;5.122;2023-07-13T04:59:52;20.94;66.20
78212;SHT31;67490;52.086;5.122;2023-07-13T05:02:38;21.04;65.93
78212;SHT31;67490;52.086;5.122;2023-07-13T05:05:22;21.17;65.64
78212;SHT31;67490;52.086;5.122;2023-07-13T05:08:06;21.19;65.56
78212;SHT31;67490;52.086;5.122;2023-07-13T05:10:52;21.34;65.33
78212;SHT31;67490;52.086;5.122;2023-07-13T05:13:38;21.27;65.43
78212;SHT31;67490;52.086;5.122;2023-07-13T05:16:22;21.31;65.30
78212;SHT31;67490;52.086;5.122;2023-07-13T05:19:07;21.36;65.26
78212;SHT31;67490;52.086;5.122;2023-07-13T05:21:51;21.35;65.39
78212;SHT31;67490;52.086;5.122;2023-07-13T05:24:36;21.36;65.34
78212;SHT31;67490;52.086;5.122;2023-07-13T05:27:20;21.35;65.37
78212;SHT31;67490;52.086;5.122;2023-07-13T05:30:08;21.34;65.44
78212;SHT31;67490;52.086;5.122;2023-07-13T05:32:55;21.38;65.55
78212;SHT31;67490;52.086;5.122;2023-07-13T05:35:39;21.48;65.26
78212;SHT31;67490;52.086;5.122;2023-07-13T05:38:24;21.59;64.93
78212;SHT31;67490;52.086;5.122;2023-07-13T05:41:09;21.53;65.10
78212;SHT31;67490;52.086;5.122;2023-07-13T05:43:53;21.55;65.17
78212;SHT31;67490;52.086;5.122;2023-07-13T05:46:39;21.50;65.43
78212;SHT31;67490;52.086;5.122;2023-07-13T05:49:23;21.60;65.33
78212;SHT31;67490;52.086;5.122;2023-07-13T05:52:08;21.70;65.05
78212;SHT31;67490;52.086;5.122;2023-07-13T05:54:52;21.73;65.15
78212;SHT31;67490;52.086;5.122;2023-07-13T05:57:36;21.76;64.99
78212;SHT31;67490;52.086;5.122;2023-07-13T06:00:21;21.85;64.84
78212;SHT31;67490;52.086;5.122;2023-07-13T06:03:06;21.79;64.97
78212;SHT31;67490;52.086;5.122;2023-07-13T06:05:51;21.85;64.85
78212;SHT31;67490;52.086;5.122;2023-07-13T06:08:36;21.85;64.84
78212;SHT31;67490;52.086;5.122;2023-07-13T06:11:23;21.87;64.91
78212;SHT31;67490;52.086;5.122;2023-07-13T06:14:07;21.98;64.91
78212;SHT31;67490;52.086;5.122;2023-07-13T06:16:52;22.17;64.31
78212;SHT31;67490;52.086;5.122;2023-07-13T06:19:38;22.07;64.61
78212;SHT31;67490;52.086;5.122;2023-07-13T06:22:22;22.21;64.31
78212;SHT31;67490;52.086;5.122;2023-07-13T06:25:07;22.44;63.45
78212;SHT31;67490;52.086;5.122;2023-07-13T06:27:52;22.35;63.53
78212;SHT31;67490;52.086;5.122;2023-07-13T06:30:38;22.30;63.63
78212;SHT31;67490;52.086;5.122;2023-07-13T06:33:22;22.16;64.07
78212;SHT31;67490;52.086;5.122;2023-07-13T06:36:08;22.14;64.04
78212;SHT31;67490;52.086;5.122;2023-07-13T06:38:53;22.28;63.76
78212;SHT31;67490;52.086;5.122;2023-07-13T06:41:38;22.56;63.53
78212;SHT31;67490;52.086;5.122;2023-07-13T06:44:25;22.69;63.76
78212;SHT31;67490;52.086;5.122;2023-07-13T06:47:09;22.81;63.56
78212;SHT31;67490;52.086;5.122;2023-07-13T06:49:54;22.75;63.43
78212;SHT31;67490;52.086;5.122;2023-07-13T06:52:39;22.47;64.11
78212;SHT31;67490;52.086;5.122;2023-07-13T06:55:24;22.31;65.33
78212;SHT31;67490;52.086;5.122;2023-07-13T06:58:08;22.10;65.90
78212;SHT31;67490;52.086;5.122;2023-07-13T07:00:52;21.94;66.68
78212;SHT31;67490;52.086;5.122;2023-07-13T07:03:37;21.86;67.55
78212;SHT31;67490;52.086;5.122;2023-07-13T07:06:22;21.77;67.65
78212;SHT31;67490;52.086;5.122;2023-07-13T07:09:11;21.60;68.30
78212;SHT31;67490;52.086;5.122;2023-07-13T07:11:55;21.35;69.22
78212;SHT31;67490;52.086;5.122;2023-07-13T07:14:40;21.38;69.89
78212;SHT31;67490;52.086;5.122;2023-07-13T07:17:24;21.42;70.27
78212;SHT31;67490;52.086;5.122;2023-07-13T07:20:11;21.52;70.26
78212;SHT31;67490;52.086;5.122;2023-07-13T07:22:55;21.57;69.51
78212;SHT31;67490;52.086;5.122;2023-07-13T07:25:43;21.53;69.43
78212;SHT31;67490;52.086;5.122;2023-07-13T07:28:27;21.57;70.13
78212;SHT31;67490;52.086;5.122;2023-07-13T07:31:12;21.62;69.55
78212;SHT31;67490;52.086;5.122;2023-07-13T07:33:56;21.72;69.38
78212;SHT31;67490;52.086;5.122;2023-07-13T07:36:40;21.80;68.70
78212;SHT31;67490;52.086;5.122;2023-07-13T07:39:25;22.00;68.41
78212;SHT31;67490;52.086;5.122;2023-07-13T07:42:11;22.14;67.44
78212;SHT31;67490;52.086;5.122;2023-07-13T07:44:57;21.90;67.94
78212;SHT31;67490;52.086;5.122;2023-07-13T07:47:41;22.01;67.73
78212;SHT31;67490;52.086;5.122;2023-07-13T07:50:26;22.00;67.09
78212;SHT31;67490;52.086;5.122;2023-07-13T07:53:11;22.11;67.14
78212;SHT31;67490;52.086;5.122;2023-07-13T07:55:55;22.38;67.12
78212;SHT31;67490;52.086;5.122;2023-07-13T07:58:41;23.06;65.17
78212;SHT31;67490;52.086;5.122;2023-07-13T08:01:25;23.78;63.03
78212;SHT31;67490;52.086;5.122;2023-07-13T08:04:10;24.16;61.11
78212;SHT31;67490;52.086;5.122;2023-07-13T08:06:54;23.79;61.61
78212;SHT31;67490;52.086;5.122;2023-07-13T08:09:40;23.89;60.60
78212;SHT31;67490;52.086;5.122;2023-07-13T08:12:25;23.74;60.37
78212;SHT31;67490;52.086;5.122;2023-07-13T08:15:14;23.51;61.23
78212;SHT31;67490;52.086;5.122;2023-07-13T08:17:59;23.82;59.94
78212;SHT31;67490;52.086;5.122;2023-07-13T08:20:43;24.39;57.20
78212;SHT31;67490;52.086;5.122;2023-07-13T08:23:28;24.00;55.69
78212;SHT31;67490;52.086;5.122;2023-07-13T08:26:12;23.47;56.64
78212;SHT31;67490;52.086;5.122;2023-07-13T08:28:57;23.00;59.01
78212;SHT31;67490;52.086;5.122;2023-07-13T08:31:43;22.54;62.84
78212;SHT31;67490;52.086;5.122;2023-07-13T08:34:27;21.90;64.33
78212;SHT31;67490;52.086;5.122;2023-07-13T08:37:12;21.42;65.05
78212;SHT31;67490;52.086;5.122;2023-07-13T08:39:57;21.25;66.66
78212;SHT31;67490;52.086;5.122;2023-07-13T08:42:46;21.12;67.55
78212;SHT31;67490;52.086;5.122;2023-07-13T08:45:43;21.34;68.24
78212;SHT31;67490;52.086;5.122;2023-07-13T08:48:34;21.62;67.56
78212;SHT31;67490;52.086;5.122;2023-07-13T08:51:38;21.94;66.64
78212;SHT31;67490;52.086;5.122;2023-07-13T08:54:31;22.01;65.33
78212;SHT31;67490;52.086;5.122;2023-07-13T08:57:22;21.90;65.13
78212;SHT31;67490;52.086;5.122;2023-07-13T09:00:10;21.92;65.26
78212;SHT31;67490;52.086;5.122;2023-07-13T09:02:58;22.93;64.68
78212;SHT31;67490;52.086;5.122;2023-07-13T09:05:50;23.86;61.92
78212;SHT31;67490;52.086;5.122;2023-07-13T09:08:50;24.69;60.65
78212;SHT31;67490;52.086;5.122;2023-07-13T09:11:47;24.69;59.10
78212;SHT31;67490;52.086;5.122;2023-07-13T09:14:41;25.18;58.54
78212;SHT31;67490;52.086;5.122;2023-07-13T09:17:30;25.96;57.08
78212;SHT31;67490;52.086;5.122;2023-07-13T09:20:24;26.17;54.45
78212;SHT31;67490;52.086;5.122;2023-07-13T09:23:14;26.20;53.53
78212;SHT31;67490;52.086;5.122;2023-07-13T09:26:05;25.80;54.14
78212;SHT31;67490;52.086;5.122;2023-07-13T09:28:55;25.01;55.63
78212;SHT31;67490;52.086;5.122;2023-07-13T09:31:47;23.92;59.33
78212;SHT31;67490;52.086;5.122;2023-07-13T09:34:34;22.93;60.44
78212;SHT31;67490;52.086;5.122;2023-07-13T09:37:21;22.58;62.34
78212;SHT31;67490;52.086;5.122;2023-07-13T09:40:14;22.27;63.67
78212;SHT31;67490;52.086;5.122;2023-07-13T09:43:01;22.14;64.06
78212;SHT31;67490;52.086;5.122;2023-07-13T09:45:48;22.34;64.63
78212;SHT31;67490;52.086;5.122;2023-07-13T09:48:35;22.49;65.11
78212;SHT31;67490;52.086;5.122;2023-07-13T09:51:20;22.92;64.78
78212;SHT31;67490;52.086;5.122;2023-07-13T09:54:04;23.12;63.41
78212;SHT31;67490;52.086;5.122;2023-07-13T09:56:54;23.61;62.51
78212;SHT31;67490;52.086;5.122;2023-07-13T09:59:41;24.02;60.55
78212;SHT31;67490;52.086;5.122;2023-07-13T10:02:30;24.55;60.33
78212;SHT31;67490;52.086;5.122;2023-07-13T10:05:16;25.17;59.34
78212;SHT31;67490;52.086;5.122;2023-07-13T10:08:02;25.70;57.56
78212;SHT31;67490;52.086;5.122;2023-07-13T10:10:52;25.34;57.18
78212;SHT31;67490;52.086;5.122;2023-07-13T10:13:43;24.63;55.95
78212;SHT31;67490;52.086;5.122;2023-07-13T10:16:30;23.94;56.17
78212;SHT31;67490;52.086;5.122;2023-07-13T10:19:23;23.37;59.43
78212;SHT31;67490;52.086;5.122;2023-07-13T10:22:16;23.50;59.81
78212;SHT31;67490;52.086;5.122;2023-07-13T10:25:15;24.21;58.92
78212;SHT31;67490;52.086;5.122;2023-07-13T10:28:14;24.79;56.37
78212;SHT31;67490;52.086;5.122;2023-07-13T10:31:10;25.12;55.55
78212;SHT31;67490;52.086;5.122;2023-07-13T10:33:56;25.75;54.32
78212;SHT31;67490;52.086;5.122;2023-07-13T10:36:43;25.90;51.49
78212;SHT31;67490;52.086;5.122;2023-07-13T10:39:30;26.45;49.74
78212;SHT31;67490;52.086;5.122;2023-07-13T10:42:23;26.88;49.50
78212;SHT31;67490;52.086;5.122;2023-07-13T10:45:14;26.47;49.35
78212;SHT31;67490;52.086;5.122;2023-07-13T10:48:01;26.69;48.86
78212;SHT31;67490;52.086;5.122;2023-07-13T10:50:50;26.92;49.29
78212;SHT31;67490;52.086;5.122;2023-07-13T10:53:38;27.03;49.37
78212;SHT31;67490;52.086;5.122;2023-07-13T10:56:29;26.88;49.92
78212;SHT31;67490;52.086;5.122;2023-07-13T10:59:17;27.00;49.56
78212;SHT31;67490;52.086;5.122;2023-07-13T11:02:12;27.16;49.81
78212;SHT31;67490;52.086;5.122;2023-07-13T11:05:17;26.81;49.16
78212;SHT31;67490;52.086;5.122;2023-07-13T11:08:12;26.06;50.00
78212;SHT31;67490;52.086;5.122;2023-07-13T11:10:58;24.83;58.66
78212;SHT31;67490;52.086;5.122;2023-07-13T11:14:00;24.32;61.82
78212;SHT31;67490;52.086;5.122;2023-07-13T11:16:48;24.02;61.10
78212;SHT31;67490;52.086;5.122;2023-07-13T11:19:41;23.79;59.35
78212;SHT31;67490;52.086;5.122;2023-07-13T11:22:42;23.50;59.75
78212;SHT31;67490;52.086;5.122;2023-07-13T11:25:33;23.49;60.70
78212;SHT31;67490;52.086;5.122;2023-07-13T11:28:27;23.12;60.31
78212;SHT31;67490;52.086;5.122;2023-07-13T11:31:16;23.00;58.50
78212;SHT31;67490;52.086;5.122;2023-07-13T11:34:00;23.00;60.24
78212;SHT31;67490;52.086;5.122;2023-07-13T11:36:45;23.10;60.54
78212;SHT31;67490;52.086;5.122;2023-07-13T11:39:36;23.31;59.17
78212;SHT31;67490;52.086;5.122;2023-07-13T11:42:22;23.42;58.43
78212;SHT31;67490;52.086;5.122;2023-07-13T11:45:19;23.46;58.44
78212;SHT31;67490;52.086;5.122;2023-07-13T11:48:03;23.54;57.46
78212;SHT31;67490;52.086;5.122;2023-07-13T11:50:58;23.86;57.63
78212;SHT31;67490;52.086;5.122;2023-07-13T11:53:46;24.19;56.23
78212;SHT31;67490;52.086;5.122;2023-07-13T11:56:33;24.49;53.08
78212;SHT31;67490;52.086;5.122;2023-07-13T11:59:18;24.37;52.88
78212;SHT31;67490;52.086;5.122;2023-07-13T12:02:17;24.28;52.44
78212;SHT31;67490;52.086;5.122;2023-07-13T12:05:04;24.36;53.52
78212;SHT31;67490;52.086;5.122;2023-07-13T12:07:51;24.52;51.64
78212;SHT31;67490;52.086;5.122;2023-07-13T12:10:35;24.67;50.29
78212;SHT31;67490;52.086;5.122;2023-07-13T12:13:21;24.84;50.71
78212;SHT31;67490;52.086;5.122;2023-07-13T12:16:20;24.92;50.06
78212;SHT31;67490;52.086;5.122;2023-07-13T12:19:17;25.06;49.84
78212;SHT31;67490;52.086;5.122;2023-07-13T12:22:03;25.12;49.66
78212;SHT31;67490;52.086;5.122;2023-07-13T12:24:48;25.08;49.22
78212;SHT31;67490;52.086;5.122;2023-07-13T12:27:32;25.11;49.33
78212;SHT31;67490;52.086;5.122;2023-07-13T12:30:29;25.10;48.46
78212;SHT31;67490;52.086;5.122;2023-07-13T12:33:19;25.14;48.54
78212;SHT31;67490;52.086;5.122;2023-07-13T12:36:06;25.17;48.57
78212;SHT31;67490;52.086;5.122;2023-07-13T12:38:51;25.18;47.98
78212;SHT31;67490;52.086;5.122;2023-07-13T12:41:35;25.21;47.86
78212;SHT31;67490;52.086;5.122;2023-07-13T12:44:26;25.25;47.42
78212;SHT31;67490;52.086;5.122;2023-07-13T12:47:14;25.31;48.09
78212;SHT31;67490;52.086;5.122;2023-07-13T12:50:03;25.57;47.45
78212;SHT31;67490;52.086;5.122;2023-07-13T12:52:51;25.49;47.62
78212;SHT31;67490;52.086;5.122;2023-07-13T12:55:42;25.62;48.45
78212;SHT31;67490;52.086;5.122;2023-07-13T12:58:30;25.69;47.63
78212;SHT31;67490;52.086;5.122;2023-07-13T13:01:17;25.65;46.67
78212;SHT31;67490;52.086;5.122;2023-07-13T13:04:04;25.76;46.44
78212;SHT31;67490;52.086;5.122;2023-07-13T13:07:01;25.51;47.50
78212;SHT31;67490;52.086;5.122;2023-07-13T13:09:46;25.62;47.24
78212;SHT31;67490;52.086;5.122;2023-07-13T13:12:31;25.66;46.11
78212;SHT31;67490;52.086;5.122;2023-07-13T13:15:16;25.66;46.22
78212;SHT31;67490;52.086;5.122;2023-07-13T13:18:01;25.57;45.88
78212;SHT31;67490;52.086;5.122;2023-07-13T13:20:48;25.29;46.49
78212;SHT31;67490;52.086;5.122;2023-07-13T13:23:32;25.31;46.95
78212;SHT31;67490;52.086;5.122;2023-07-13T13:26:18;25.39;47.22
78212;SHT31;67490;52.086;5.122;2023-07-13T13:29:12;25.55;46.70
78212;SHT31;67490;52.086;5.122;2023-07-13T13:31:58;25.62;45.84
78212;SHT31;67490;52.086;5.122;2023-07-13T13:34:42;25.72;46.21
78212;SHT31;67490;52.086;5.122;2023-07-13T13:37:28;25.35;45.97
78212;SHT31;67490;52.086;5.122;2023-07-13T13:40:14;25.22;47.21
78212;SHT31;67490;52.086;5.122;2023-07-13T13:42:59;25.07;46.84
78212;SHT31;67490;52.086;5.122;2023-07-13T13:45:45;25.14;47.51
78212;SHT31;67490;52.086;5.122;2023-07-13T13:48:32;25.04;47.50
78212;SHT31;67490;52.086;5.122;2023-07-13T13:51:19;24.81;48.31
78212;SHT31;67490;52.086;5.122;2023-07-13T13:54:11;24.90;47.82
78212;SHT31;67490;52.086;5.122;2023-07-13T13:56:56;24.88;48.11
78212;SHT31;67490;52.086;5.122;2023-07-13T13:59:40;25.12;48.26
78212;SHT31;67490;52.086;5.122;2023-07-13T14:02:27;25.38;47.03
78212;SHT31;67490;52.086;5.122;2023-07-13T14:05:13;25.45;46.96
78212;SHT31;67490;52.086;5.122;2023-07-13T14:07:59;25.32;47.18
78212;SHT31;67490;52.086;5.122;2023-07-13T14:10:48;25.29;47.42
78212;SHT31;67490;52.086;5.122;2023-07-13T14:13:39;25.48;47.84
78212;SHT31;67490;52.086;5.122;2023-07-13T14:16:28;25.42;47.60
78212;SHT31;67490;52.086;5.122;2023-07-13T14:19:14;25.42;47.82
78212;SHT31;67490;52.086;5.122;2023-07-13T14:21:58;25.58;48.21
78212;SHT31;67490;52.086;5.122;2023-07-13T14:24:43;25.68;47.79
78212;SHT31;67490;52.086;5.122;2023-07-13T14:27:28;25.59;47.17
78212;SHT31;67490;52.086;5.122;2023-07-13T14:30:14;25.46;48.13
78212;SHT31;67490;52.086;5.122;2023-07-13T14:33:00;25.11;47.88
78212;SHT31;67490;52.086;5.122;2023-07-13T14:35:44;25.17;48.03
78212;SHT31;67490;52.086;5.122;2023-07-13T14:38:28;25.25;47.59
78212;SHT31;67490;52.086;5.122;2023-07-13T14:41:13;25.38;47.72
78212;SHT31;67490;52.086;5.122;2023-07-13T14:43:58;25.46;47.19
78212;SHT31;67490;52.086;5.122;2023-07-13T14:46:44;25.41;46.23
78212;SHT31;67490;52.086;5.122;2023-07-13T14:49:33;25.38;46.85
78212;SHT31;67490;52.086;5.122;2023-07-13T14:52:21;25.38;46.79
78212;SHT31;67490;52.086;5.122;2023-07-13T14:55:10;25.46;47.20
78212;SHT31;67490;52.086;5.122;2023-07-13T14:57:54;25.61;46.24
78212;SHT31;67490;52.086;5.122;2023-07-13T15:00:40;25.62;46.34
78212;SHT31;67490;52.086;5.122;2023-07-13T15:03:26;25.52;46.46
78212;SHT31;67490;52.086;5.122;2023-07-13T15:06:12;25.45;46.60
78212;SHT31;67490;52.086;5.122;2023-07-13T15:08:57;25.45;46.85
78212;SHT31;67490;52.086;5.122;2023-07-13T15:11:41;25.35;46.62
78212;SHT31;67490;52.086;5.122;2023-07-13T15:14:26;25.43;46.34
78212;SHT31;67490;52.086;5.122;2023-07-13T15:17:26;25.58;46.23
78212;SHT31;67490;52.086;5.122;2023-07-13T15:20:18;25.59;46.33
78212;SHT31;67490;52.086;5.122;2023-07-13T15:23:03;25.68;45.34
78212;SHT31;67490;52.086;5.122;2023-07-13T15:25:48;25.65;45.98
78212;SHT31;67490;52.086;5.122;2023-07-13T15:28:33;25.62;45.74
78212;SHT31;67490;52.086;5.122;2023-07-13T15:31:21;25.72;46.64
78212;SHT31;67490;52.086;5.122;2023-07-13T15:34:14;25.66;46.62
78212;SHT31;67490;52.086;5.122;2023-07-13T15:36:58;25.46;47.31
78212;SHT31;67490;52.086;5.122;2023-07-13T15:39:45;25.29;47.32
78212;SHT31;67490;52.086;5.122;2023-07-13T15:42:29;25.35;47.61
78212;SHT31;67490;52.086;5.122;2023-07-13T15:45:16;25.37;47.00
78212;SHT31;67490;52.086;5.122;2023-07-13T15:48:01;25.34;46.40
78212;SHT31;67490;52.086;5.122;2023-07-13T15:50:49;25.20;47.20
78212;SHT31;67490;52.086;5.122;2023-07-13T15:53:38;25.37;47.03
78212;SHT31;67490;52.086;5.122;2023-07-13T15:56:26;25.32;46.74
78212;SHT31;67490;52.086;5.122;2023-07-13T15:59:11;25.37;47.32
78212;SHT31;67490;52.086;5.122;2023-07-13T16:01:58;25.41;48.00
78212;SHT31;67490;52.086;5.122;2023-07-13T16:04:43;25.43;46.87
78212;SHT31;67490;52.086;5.122;2023-07-13T16:07:29;25.48;47.39
78212;SHT31;67490;52.086;5.122;2023-07-13T16:10:15;25.62;47.23
78212;SHT31;67490;52.086;5.122;2023-07-13T16:13:01;25.58;45.85
78212;SHT31;67490;52.086;5.122;2023-07-13T16:15:46;25.37;46.01
78212;SHT31;67490;52.086;5.122;2023-07-13T16:18:31;25.28;46.40
78212;SHT31;67490;52.086;5.122;2023-07-13T16:21:15;25.14;46.27
78212;SHT31;67490;52.086;5.122;2023-07-13T16:24:03;25.08;46.69
78212;SHT31;67490;52.086;5.122;2023-07-13T16:26:49;25.03;47.28
78212;SHT31;67490;52.086;5.122;2023-07-13T16:29:33;25.04;47.78
78212;SHT31;67490;52.086;5.122;2023-07-13T16:32:18;25.10;47.37
78212;SHT31;67490;52.086;5.122;2023-07-13T16:35:03;25.04;47.81
78212;SHT31;67490;52.086;5.122;2023-07-13T16:37:49;25.00;46.83
78212;SHT31;67490;52.086;5.122;2023-07-13T16:40:35;24.95;47.40
78212;SHT31;67490;52.086;5.122;2023-07-13T16:43:20;24.91;46.80
78212;SHT31;67490;52.086;5.122;2023-07-13T16:46:11;24.79;47.07
78212;SHT31;67490;52.086;5.122;2023-07-13T16:48:59;24.70;47.87
78212;SHT31;67490;52.086;5.122;2023-07-13T16:51:45;24.80;47.44
78212;SHT31;67490;52.086;5.122;2023-07-13T16:54:32;24.88;47.48
78212;SHT31;67490;52.086;5.122;2023-07-13T16:57:21;25.00;47.62
78212;SHT31;67490;52.086;5.122;2023-07-13T17:00:19;25.04;47.33
78212;SHT31;67490;52.086;5.122;2023-07-13T17:03:05;24.81;47.88
78212;SHT31;67490;52.086;5.122;2023-07-13T17:05:50;24.83;48.39
78212;SHT31;67490;52.086;5.122;2023-07-13T17:08:34;24.81;48.13
78212;SHT31;67490;52.086;5.122;2023-07-13T17:11:20;24.84;47.93
78212;SHT31;67490;52.086;5.122;2023-07-13T17:14:12;24.86;48.18
78212;SHT31;67490;52.086;5.122;2023-07-13T17:16:58;24.81;48.22
78212;SHT31;67490;52.086;5.122;2023-07-13T17:19:43;24.70;48.48
78212;SHT31;67490;52.086;5.122;2023-07-13T17:22:28;24.62;48.79
78212;SHT31;67490;52.086;5.122;2023-07-13T17:25:13;24.63;48.62
78212;SHT31;67490;52.086;5.122;2023-07-13T17:27:57;24.66;48.80
78212;SHT31;67490;52.086;5.122;2023-07-13T17:30:44;24.48;48.74
78212;SHT31;67490;52.086;5.122;2023-07-13T17:33:31;24.57;48.93